Time,TemperatureF,DewpointF,PressureIn,WindDirection,WindDirectionDegrees,WindSpeedMPH,WindSpeedGustMPH,Humidity,HourlyPrecipIn,Conditions,Clouds,dailyrainin,SoftwareType,DateUTC
2013-03-27 00:00:00,27.3,18.1,30.24,ESE,103,0.0,0.0,68,0.00,,,0.00,Wunderground v.1.15,2013-03-27 05:00:00,
2013-03-27 00:05:00,27.2,18.0,30.24,ESE,103,0.0,0.0,68,0.00,,,0.00,Wunderground v.1.15,2013-03-27 05:05:00,
2013-03-27 00:15:00,26.9,17.7,30.25,ESE,103,0.0,0.0,68,0.00,,,0.00,Wunderground v.1.15,2013-03-27 05:15:00,
2013-03-27 00:20:00,26.7,17.6,30.25,ESE,103,0.0,0.0,68,0.00,,,0.00,Wunderground v.1.15,2013-03-27 05:20:00,
2013-03-27 00:25:00,26.7,17.6,30.25,ESE,103,0.0,0.0,68,0.00,,,0.00,Wunderground v.1.15,2013-03-27 05:25:00,
2013-03-27 00:30:00,26.6,17.5,30.24,ESE,103,0.0,0.0,68,0.00,,,0.00,Wunderground v.1.15,2013-03-27 05:30:00,
2013-03-27 00:40:00,26.3,17.5,30.24,ESE,103,0.0,0.0,69,0.00,,,0.00,Wunderground v.1.15,2013-03-27 05:40:00,
2013-03-27 00:45:00,26.1,17.0,30.24,ESE,103,0.0,0.0,68,0.00,,,0.00,Wunderground v.1.15,2013-03-27 05:45:00,
2013-03-27 00:50:00,26.1,17.3,30.24,ESE,103,0.0,0.0,69,0.00,,,0.00,Wunderground v.1.15,2013-03-27 05:50:00,
2013-03-27 01:00:00,26.0,17.2,30.25,ESE,103,0.0,0.0,69,0.00,,,0.00,Wunderground v.1.15,2013-03-27 06:00:00,
2013-03-27 01:06:00,25.8,17.0,30.25,ESE,103,0.0,0.0,69,0.00,,,0.00,Wunderground v.1.15,2013-03-27 06:06:00,
2013-03-27 01:15:00,25.7,16.9,30.25,ESE,103,0.0,0.0,69,0.00,,,0.00,Wunderground v.1.15,2013-03-27 06:15:00,
2013-03-27 01:20:00,25.7,16.9,30.25,ESE,103,0.0,0.0,69,0.00,,,0.00,Wunderground v.1.15,2013-03-27 06:20:00,
2013-03-27 01:30:00,25.7,16.9,30.25,ESE,103,0.0,0.0,69,0.00,,,0.00,Wunderground v.1.15,2013-03-27 06:30:00,
2013-03-27 01:40:00,25.8,17.0,30.25,ESE,103,0.0,0.0,69,0.00,,,0.00,Wunderground v.1.15,2013-03-27 06:40:00,
2013-03-27 01:45:00,25.8,17.4,30.25,ESE,103,0.0,0.0,70,0.00,,,0.00,Wunderground v.1.15,2013-03-27 06:45:00,
2013-03-27 01:50:00,26.0,17.6,30.25,ESE,103,0.0,0.0,70,0.00,,,0.00,Wunderground v.1.15,2013-03-27 06:50:00,
2013-03-27 01:55:00,26.0,17.6,30.25,ESE,103,0.0,0.0,70,0.00,,,0.00,Wunderground v.1.15,2013-03-27 06:55:00,
2013-03-27 02:00:00,26.0,17.6,30.25,ESE,103,0.0,0.0,70,0.00,,,0.00,Wunderground v.1.15,2013-03-27 07:00:00,
2013-03-27 02:06:00,26.0,17.6,30.25,ESE,103,0.0,0.0,70,0.00,,,0.00,Wunderground v.1.15,2013-03-27 07:06:00,
2013-03-27 02:15:00,26.1,17.6,30.25,ESE,103,0.0,0.0,70,0.00,,,0.00,Wunderground v.1.15,2013-03-27 07:15:00,
2013-03-27 02:20:00,26.1,17.6,30.25,ESE,103,0.0,0.0,70,0.00,,,0.00,Wunderground v.1.15,2013-03-27 07:20:00,
2013-03-27 02:25:00,26.3,18.2,30.25,ESE,103,0.0,0.0,71,0.00,,,0.00,Wunderground v.1.15,2013-03-27 07:25:00,
2013-03-27 02:30:00,26.3,18.2,30.25,ESE,103,0.0,0.0,71,0.00,,,0.00,Wunderground v.1.15,2013-03-27 07:30:00,
2013-03-27 02:40:00,26.6,18.5,30.25,ESE,103,0.0,0.0,71,0.00,,,0.00,Wunderground v.1.15,2013-03-27 07:40:00,
2013-03-27 02:45:00,26.6,18.5,30.25,ESE,103,0.0,0.0,71,0.00,,,0.00,Wunderground v.1.15,2013-03-27 07:45:00,
2013-03-27 02:50:00,26.6,18.5,30.25,ESE,103,0.0,0.0,71,0.00,,,0.00,Wunderground v.1.15,2013-03-27 07:50:00,
2013-03-27 02:55:00,26.6,18.5,30.25,ESE,103,0.0,0.0,71,0.00,,,0.00,Wunderground v.1.15,2013-03-27 07:55:00,
2013-03-27 03:00:00,26.6,18.5,30.25,ESE,103,0.0,0.0,71,0.00,,,0.00,Wunderground v.1.15,2013-03-27 08:00:00,
2013-03-27 03:05:00,26.7,18.6,30.25,ESE,103,0.0,0.0,71,0.00,,,0.00,Wunderground v.1.15,2013-03-27 08:05:00,
2013-03-27 03:15:00,26.7,18.9,30.25,ESE,103,0.0,0.0,72,0.00,,,0.00,Wunderground v.1.15,2013-03-27 08:15:00,
2013-03-27 03:20:00,26.7,18.9,30.25,ESE,103,0.0,0.0,72,0.00,,,0.00,Wunderground v.1.15,2013-03-27 08:20:00,
2013-03-27 03:30:00,26.7,18.9,30.25,ESE,103,0.0,0.0,72,0.00,,,0.00,Wunderground v.1.15,2013-03-27 08:30:00,
2013-03-27 03:35:00,26.7,18.9,30.25,ESE,103,0.0,0.0,72,0.00,,,0.00,Wunderground v.1.15,2013-03-27 08:35:00,
2013-03-27 03:40:00,26.7,18.9,30.25,ESE,103,0.0,0.0,72,0.00,,,0.00,Wunderground v.1.15,2013-03-27 08:40:00,
2013-03-27 03:50:00,26.7,18.9,30.25,ESE,103,0.0,0.0,72,0.00,,,0.00,Wunderground v.1.15,2013-03-27 08:50:00,
2013-03-27 04:00:00,26.7,18.9,30.24,ESE,103,0.0,0.0,72,0.00,,,0.00,Wunderground v.1.15,2013-03-27 09:00:00,
2013-03-27 04:05:00,26.7,18.9,30.24,ESE,103,0.0,0.0,72,0.00,,,0.00,Wunderground v.1.15,2013-03-27 09:05:00,
2013-03-27 04:15:00,26.6,18.8,30.24,ESE,103,0.0,0.0,72,0.00,,,0.00,Wunderground v.1.15,2013-03-27 09:15:00,
2013-03-27 04:20:00,26.6,18.8,30.24,ESE,103,0.0,0.0,72,0.00,,,0.00,Wunderground v.1.15,2013-03-27 09:20:00,
2013-03-27 04:25:00,26.4,18.6,30.24,ESE,103,0.0,0.0,72,0.00,,,0.00,Wunderground v.1.15,2013-03-27 09:25:00,
2013-03-27 04:35:00,26.1,18.3,30.25,ESE,103,0.0,0.0,72,0.00,,,0.00,Wunderground v.1.15,2013-03-27 09:35:00,
2013-03-27 04:40:00,26.0,18.2,30.25,ESE,103,0.0,0.0,72,0.00,,,0.00,Wunderground v.1.15,2013-03-27 09:40:00,
2013-03-27 04:45:00,25.8,18.0,30.25,ESE,103,0.0,0.0,72,0.00,,,0.00,Wunderground v.1.15,2013-03-27 09:45:00,
2013-03-27 04:50:00,25.7,17.9,30.25,ESE,103,0.0,0.0,72,0.00,,,0.00,Wunderground v.1.15,2013-03-27 09:50:00,
2013-03-27 05:00:00,25.4,17.9,30.25,ESE,103,0.0,0.0,73,0.00,,,0.00,Wunderground v.1.15,2013-03-27 10:00:00,
2013-03-27 05:06:00,25.1,17.3,30.25,ESE,103,0.0,0.0,72,0.00,,,0.00,Wunderground v.1.15,2013-03-27 10:06:00,
2013-03-27 05:15:00,24.8,17.4,30.25,ESE,103,0.0,0.0,73,0.00,,,0.00,Wunderground v.1.15,2013-03-27 10:15:00,
2013-03-27 05:20:00,24.7,17.3,30.25,ESE,103,0.0,0.0,73,0.00,,,0.00,Wunderground v.1.15,2013-03-27 10:20:00,
2013-03-27 05:25:00,24.5,17.1,30.25,ESE,103,0.0,0.0,73,0.00,,,0.00,Wunderground v.1.15,2013-03-27 10:25:00,
2013-03-27 05:35:00,24.1,16.7,30.25,ESE,103,0.0,0.0,73,0.00,,,0.00,Wunderground v.1.15,2013-03-27 10:35:00,
2013-03-27 05:40:00,23.9,16.5,30.25,ESE,103,0.0,0.0,73,0.00,,,0.00,Wunderground v.1.15,2013-03-27 10:40:00,
2013-03-27 05:45:00,23.8,16.4,30.25,ESE,103,0.0,0.0,73,0.00,,,0.00,Wunderground v.1.15,2013-03-27 10:45:00,
2013-03-27 05:50:00,23.6,16.5,30.25,ESE,103,0.0,0.0,74,0.00,,,0.00,Wunderground v.1.15,2013-03-27 10:50:00,
2013-03-27 05:55:00,23.5,16.4,30.25,ESE,103,0.0,0.0,74,0.00,,,0.00,Wunderground v.1.15,2013-03-27 10:55:00,
2013-03-27 06:00:00,23.3,16.2,30.25,ESE,103,0.0,0.0,74,0.00,,,0.00,Wunderground v.1.15,2013-03-27 11:00:00,
2013-03-27 06:06:00,23.2,16.1,30.25,ESE,103,0.0,0.0,74,0.00,,,0.00,Wunderground v.1.15,2013-03-27 11:06:00,
2013-03-27 06:15:00,23.0,15.9,30.25,ESE,103,0.0,0.0,74,0.00,,,0.00,Wunderground v.1.15,2013-03-27 11:15:00,
2013-03-27 06:20:00,22.9,16.2,30.25,ESE,103,0.0,0.0,75,0.00,,,0.00,Wunderground v.1.15,2013-03-27 11:20:00,
2013-03-27 06:25:00,22.7,16.0,30.25,ESE,103,0.0,0.0,75,0.00,,,0.00,Wunderground v.1.15,2013-03-27 11:25:00,
2013-03-27 06:30:00,22.5,15.8,30.26,ESE,103,0.0,0.0,75,0.00,,,0.00,Wunderground v.1.15,2013-03-27 11:30:00,
2013-03-27 06:40:00,22.2,15.5,30.26,ESE,103,0.0,0.0,75,0.00,,,0.00,Wunderground v.1.15,2013-03-27 11:40:00,
2013-03-27 06:45:00,22.1,15.4,30.26,ESE,103,0.0,0.0,75,0.00,,,0.00,Wunderground v.1.15,2013-03-27 11:45:00,
2013-03-27 06:50:00,21.9,15.2,30.26,ESE,103,0.0,0.0,75,0.00,,,0.00,Wunderground v.1.15,2013-03-27 11:50:00,
2013-03-27 07:00:00,21.6,15.2,30.26,ESE,103,0.0,0.0,76,0.00,,,0.00,Wunderground v.1.15,2013-03-27 12:00:00,
2013-03-27 07:06:00,21.4,15.0,30.26,ESE,103,0.0,0.0,76,0.00,,,0.00,Wunderground v.1.15,2013-03-27 12:06:00,
2013-03-27 07:15:00,21.3,14.9,30.27,ESE,103,0.0,0.0,76,0.00,,,0.00,Wunderground v.1.15,2013-03-27 12:15:00,
2013-03-27 07:25:00,21.1,14.7,30.27,ESE,103,0.0,0.0,76,0.00,,,0.00,Wunderground v.1.15,2013-03-27 12:25:00,
2013-03-27 07:30:00,21.0,14.6,30.28,ESE,103,0.0,0.0,76,0.00,,,0.00,Wunderground v.1.15,2013-03-27 12:30:00,
2013-03-27 07:35:00,21.0,14.6,30.28,ESE,103,0.0,0.0,76,0.00,,,0.00,Wunderground v.1.15,2013-03-27 12:35:00,
2013-03-27 07:40:00,20.8,14.4,30.28,ESE,103,0.0,0.0,76,0.00,,,0.00,Wunderground v.1.15,2013-03-27 12:40:00,
2013-03-27 07:45:00,20.8,14.4,30.28,ESE,103,0.0,0.0,76,0.00,,,0.00,Wunderground v.1.15,2013-03-27 12:45:00,
2013-03-27 07:50:00,20.8,14.4,30.28,ESE,103,0.0,0.0,76,0.00,,,0.00,Wunderground v.1.15,2013-03-27 12:50:00,
2013-03-27 07:55:00,20.8,14.4,30.28,ESE,103,0.0,0.0,76,0.00,,,0.00,Wunderground v.1.15,2013-03-27 12:55:00,
2013-03-27 08:05:00,21.1,15.0,30.28,ESE,103,0.0,0.0,77,0.00,,,0.00,Wunderground v.1.15,2013-03-27 13:05:00,
2013-03-27 08:15:00,21.4,15.3,30.28,ESE,103,0.0,0.0,77,0.00,,,0.00,Wunderground v.1.15,2013-03-27 13:15:00,
2013-03-27 08:25:00,22.1,16.3,30.28,ESE,103,0.0,0.0,78,0.00,,,0.00,Wunderground v.1.15,2013-03-27 13:25:00,
2013-03-27 08:30:00,22.5,17.0,30.28,ESE,103,0.0,0.0,79,0.00,,,0.00,Wunderground v.1.15,2013-03-27 13:30:00,
2013-03-27 08:40:00,23.6,18.3,30.28,ESE,103,0.0,0.0,80,0.00,,,0.00,Wunderground v.1.15,2013-03-27 13:40:00,
2013-03-27 08:45:00,24.4,19.1,30.28,ESE,103,0.0,0.0,80,0.00,,,0.00,Wunderground v.1.15,2013-03-27 13:45:00,
2013-03-27 08:50:00,26.3,20.1,30.28,ESE,103,0.0,0.0,77,0.00,,,0.00,Wunderground v.1.15,2013-03-27 13:50:00,
2013-03-27 08:55:00,27.8,19.9,30.28,ESE,103,0.0,0.0,72,0.00,,,0.00,Wunderground v.1.15,2013-03-27 13:55:00,
2013-03-27 09:00:00,29.1,19.5,30.27,ESE,103,0.0,0.0,67,0.00,,,0.00,Wunderground v.1.15,2013-03-27 14:00:00,
2013-03-27 09:05:00,30.0,19.3,30.27,ESE,103,0.0,0.0,64,0.00,,,0.00,Wunderground v.1.15,2013-03-27 14:05:00,
2013-03-27 09:15:00,31.5,19.6,30.27,ESE,103,0.0,0.0,61,0.00,,,0.00,Wunderground v.1.15,2013-03-27 14:15:00,
2013-03-27 09:20:00,31.6,19.3,30.27,ESE,103,0.0,0.0,60,0.00,,,0.00,Wunderground v.1.15,2013-03-27 14:20:00,
2013-03-27 09:25:00,31.9,19.2,30.27,ESE,103,0.0,0.0,59,0.00,,,0.00,Wunderground v.1.15,2013-03-27 14:25:00,
2013-03-27 09:30:00,31.9,18.8,30.27,ESE,103,0.0,0.0,58,0.00,,,0.00,Wunderground v.1.15,2013-03-27 14:30:00,
2013-03-27 09:40:00,32.7,19.5,30.27,ESE,103,0.0,0.0,58,0.00,,,0.00,Wunderground v.1.15,2013-03-27 14:40:00,
2013-03-27 09:45:00,33.8,19.7,30.27,ESE,103,0.0,0.0,56,0.00,,,0.00,Wunderground v.1.15,2013-03-27 14:45:00,
2013-03-27 09:55:00,34.7,19.3,30.27,ESE,103,0.0,0.0,53,0.00,,,0.00,Wunderground v.1.15,2013-03-27 14:55:00,
2013-03-27 10:00:00,36.2,19.3,30.27,ESE,103,0.0,0.0,50,0.00,,,0.00,Wunderground v.1.15,2013-03-27 15:00:00,
2013-03-27 10:06:00,36.5,19.1,30.27,ESE,103,0.0,0.0,49,0.00,,,0.00,Wunderground v.1.15,2013-03-27 15:06:00,
2013-03-27 10:15:00,37.8,20.3,30.27,ESE,103,0.0,0.0,49,0.00,,,0.00,Wunderground v.1.15,2013-03-27 15:15:00,
2013-03-27 10:20:00,37.8,17.8,30.27,ESE,103,0.0,0.0,44,0.00,,,0.00,Wunderground v.1.15,2013-03-27 15:20:00,
2013-03-27 10:30:00,38.6,19.6,30.28,ENE,72,0.0,0.0,46,0.00,,,0.00,Wunderground v.1.15,2013-03-27 15:30:00,
2013-03-27 10:35:00,39.1,20.0,30.28,ENE,72,0.0,0.0,46,0.00,,,0.00,Wunderground v.1.15,2013-03-27 15:35:00,
2013-03-27 10:45:00,39.2,18.0,30.27,ENE,72,0.0,0.0,42,0.00,,,0.00,Wunderground v.1.15,2013-03-27 15:45:00,
2013-03-27 10:50:00,39.1,18.5,30.27,ENE,72,0.0,0.0,43,0.00,,,0.00,Wunderground v.1.15,2013-03-27 15:50:00,
2013-03-27 10:55:00,40.3,19.0,30.27,ENE,72,0.0,0.0,42,0.00,,,0.00,Wunderground v.1.15,2013-03-27 15:55:00,
2013-03-27 11:00:00,40.6,18.1,30.27,ENE,72,0.0,0.0,40,0.00,,,0.00,Wunderground v.1.15,2013-03-27 16:00:00,
2013-03-27 11:05:00,40.8,18.3,30.27,ENE,72,0.0,0.0,40,0.00,,,0.00,Wunderground v.1.15,2013-03-27 16:05:00,
2013-03-27 11:15:00,39.1,17.9,30.28,ENE,72,0.0,0.0,42,0.00,,,0.00,Wunderground v.1.15,2013-03-27 16:15:00,
2013-03-27 11:20:00,39.6,17.8,30.28,SE,133,0.0,0.0,41,0.00,,,0.00,Wunderground v.1.15,2013-03-27 16:20:00,
2013-03-27 11:25:00,40.5,19.7,30.28,SE,133,0.0,0.0,43,0.00,,,0.00,Wunderground v.1.15,2013-03-27 16:25:00,
2013-03-27 11:35:00,42.6,19.3,30.28,SE,127,0.0,0.0,39,0.00,,,0.00,Wunderground v.1.15,2013-03-27 16:35:00,
2013-03-27 11:40:00,41.3,17.6,30.28,SE,127,0.0,0.0,38,0.00,,,0.00,Wunderground v.1.15,2013-03-27 16:40:00,
2013-03-27 11:45:00,41.2,16.9,30.28,SE,127,0.0,0.0,37,0.00,,,0.00,Wunderground v.1.15,2013-03-27 16:45:00,
2013-03-27 11:50:00,42.1,18.3,30.28,SE,127,0.0,0.0,38,0.00,,,0.00,Wunderground v.1.15,2013-03-27 16:50:00,
2013-03-27 11:55:00,41.9,17.5,30.28,SE,127,0.0,0.0,37,0.00,,,0.00,Wunderground v.1.15,2013-03-27 16:55:00,
2013-03-27 12:00:00,42.8,17.0,30.27,NW,310,0.0,0.0,35,0.00,,,0.00,Wunderground v.1.15,2013-03-27 17:00:00,
2013-03-27 12:06:00,42.2,17.1,30.27,ESE,113,0.0,0.0,36,0.00,,,0.00,Wunderground v.1.15,2013-03-27 17:06:00,
2013-03-27 12:15:00,43.5,16.9,30.27,WNW,300,0.0,0.0,34,0.00,,,0.00,Wunderground v.1.15,2013-03-27 17:15:00,
2013-03-27 12:20:00,42.6,17.5,30.27,SE,127,0.0,0.0,36,0.00,,,0.00,Wunderground v.1.15,2013-03-27 17:20:00,
2013-03-27 12:25:00,43.3,16.1,30.27,SE,131,0.0,0.0,33,0.00,,,0.00,Wunderground v.1.15,2013-03-27 17:25:00,
2013-03-27 12:35:00,43.6,17.7,30.27,East,101,0.0,0.0,35,0.00,,,0.00,Wunderground v.1.15,2013-03-27 17:35:00,
2013-03-27 12:40:00,42.8,17.7,30.27,North,0,0.0,0.0,36,0.00,,,0.00,Wunderground v.1.15,2013-03-27 17:40:00,
2013-03-27 12:45:00,42.1,17.7,30.27,North,0,0.0,0.0,37,0.00,,,0.00,Wunderground v.1.15,2013-03-27 17:45:00,
2013-03-27 12:55:00,43.3,17.4,30.27,NW,326,0.0,0.0,35,0.00,,,0.00,Wunderground v.1.15,2013-03-27 17:55:00,
2013-03-27 13:00:00,42.2,16.5,30.27,NW,323,0.0,0.0,35,0.00,,,0.00,Wunderground v.1.15,2013-03-27 18:00:00,
2013-03-27 13:06:00,42.2,17.1,30.27,NW,323,0.0,0.0,36,0.00,,,0.00,Wunderground v.1.15,2013-03-27 18:06:00,
2013-03-27 13:15:00,42.3,17.8,30.27,NW,304,0.0,0.0,37,0.00,,,0.00,Wunderground v.1.15,2013-03-27 18:15:00,
2013-03-27 13:20:00,42.9,18.4,30.27,NW,316,0.0,0.0,37,0.00,,,0.00,Wunderground v.1.15,2013-03-27 18:20:00,
2013-03-27 13:25:00,43.3,18.7,30.27,West,267,0.0,0.0,37,0.00,,,0.00,Wunderground v.1.15,2013-03-27 18:25:00,
2013-03-27 13:30:00,42.2,17.1,30.27,West,267,0.0,0.0,36,0.00,,,0.00,Wunderground v.1.15,2013-03-27 18:30:00,
2013-03-27 13:40:00,43.5,18.9,30.27,SSW,196,0.0,0.0,37,0.00,,,0.00,Wunderground v.1.15,2013-03-27 18:40:00,
2013-03-27 13:45:00,42.9,17.7,30.26,NNW,331,0.0,0.0,36,0.00,,,0.00,Wunderground v.1.15,2013-03-27 18:45:00,
2013-03-27 13:50:00,42.3,15.9,30.26,WNW,295,0.0,0.0,34,0.00,,,0.00,Wunderground v.1.15,2013-03-27 18:50:00,
2013-03-27 14:00:00,43.6,17.0,30.26,North,354,0.0,0.0,34,0.00,,,0.00,Wunderground v.1.15,2013-03-27 19:00:00,
2013-03-27 14:06:00,42.9,16.4,30.26,North,356,0.0,0.0,34,0.00,,,0.00,Wunderground v.1.15,2013-03-27 19:06:00,
2013-03-27 14:15:00,43.2,18.0,30.26,WSW,254,0.0,0.0,36,0.00,,,0.00,Wunderground v.1.15,2013-03-27 19:15:00,
2013-03-27 14:20:00,43.8,18.5,30.26,ESE,117,0.0,0.0,36,0.00,,,0.00,Wunderground v.1.15,2013-03-27 19:20:00,
2013-03-27 14:25:00,42.9,17.7,30.26,NE,51,0.0,0.0,36,0.00,,,0.00,Wunderground v.1.15,2013-03-27 19:25:00,
2013-03-27 14:30:00,43.1,16.6,30.26,WSW,255,0.0,0.0,34,0.00,,,0.00,Wunderground v.1.15,2013-03-27 19:30:00,
2013-03-27 14:40:00,42.9,18.4,30.26,ENE,68,0.0,0.0,37,0.00,,,0.00,Wunderground v.1.15,2013-03-27 19:40:00,
2013-03-27 14:45:00,42.8,17.7,30.25,ESE,107,0.0,0.0,36,0.00,,,0.00,Wunderground v.1.15,2013-03-27 19:45:00,
2013-03-27 14:50:00,42.9,17.1,30.25,ESE,120,0.0,0.0,35,0.00,,,0.00,Wunderground v.1.15,2013-03-27 19:50:00,
2013-03-27 15:00:00,42.1,17.0,30.25,SSW,205,0.0,0.0,36,0.00,,,0.00,Wunderground v.1.15,2013-03-27 20:00:00,
2013-03-27 15:06:00,41.3,16.3,30.25,SSW,205,0.0,0.0,36,0.00,,,0.00,Wunderground v.1.15,2013-03-27 20:06:00,
2013-03-27 15:15:00,42.1,17.7,30.24,West,264,0.0,0.0,37,0.00,,,0.00,Wunderground v.1.15,2013-03-27 20:15:00,
2013-03-27 15:20:00,41.9,17.5,30.24,West,276,0.0,0.0,37,0.00,,,0.00,Wunderground v.1.15,2013-03-27 20:20:00,
2013-03-27 15:25:00,42.6,18.1,30.24,NNE,12,0.0,0.0,37,0.00,,,0.00,Wunderground v.1.15,2013-03-27 20:25:00,
2013-03-27 15:30:00,43.2,18.6,30.24,ESE,112,0.0,0.0,37,0.00,,,0.00,Wunderground v.1.15,2013-03-27 20:30:00,
2013-03-27 15:35:00,43.1,17.3,30.24,SE,130,0.0,0.0,35,0.00,,,0.00,Wunderground v.1.15,2013-03-27 20:35:00,
2013-03-27 15:45:00,42.5,18.0,30.24,ESE,122,0.0,0.0,37,0.00,,,0.00,Wunderground v.1.15,2013-03-27 20:45:00,
2013-03-27 15:50:00,42.3,16.6,30.24,ESE,122,0.0,0.0,35,0.00,,,0.00,Wunderground v.1.15,2013-03-27 20:50:00,
2013-03-27 15:55:00,42.2,17.1,30.24,ESE,122,0.0,0.0,36,0.00,,,0.00,Wunderground v.1.15,2013-03-27 20:55:00,
2013-03-27 16:00:00,41.5,16.5,30.24,ESE,122,0.0,0.0,36,0.00,,,0.00,Wunderground v.1.15,2013-03-27 21:00:00,
2013-03-27 16:06:00,41.9,17.5,30.24,ESE,114,0.0,0.0,37,0.00,,,0.00,Wunderground v.1.15,2013-03-27 21:06:00,
2013-03-27 16:15:00,42.9,19.0,30.24,ESE,118,0.0,0.0,38,0.00,,,0.00,Wunderground v.1.15,2013-03-27 21:15:00,
2013-03-27 16:20:00,42.8,18.9,30.24,NNE,23,0.0,0.0,38,0.00,,,0.00,Wunderground v.1.15,2013-03-27 21:20:00,
2013-03-27 16:25:00,42.6,18.7,30.24,NNE,24,0.0,0.0,38,0.00,,,0.00,Wunderground v.1.15,2013-03-27 21:25:00,
2013-03-27 16:30:00,42.3,19.1,30.24,NNE,24,0.0,0.0,39,0.00,,,0.00,Wunderground v.1.15,2013-03-27 21:30:00,
2013-03-27 16:35:00,42.3,19.1,30.24,NNE,24,0.0,0.0,39,0.00,,,0.00,Wunderground v.1.15,2013-03-27 21:35:00,
2013-03-27 16:45:00,41.9,19.3,30.23,NW,319,0.0,0.0,40,0.00,,,0.00,Wunderground v.1.15,2013-03-27 21:45:00,
2013-03-27 16:55:00,41.8,18.6,30.23,ESE,119,0.0,0.0,39,0.00,,,0.00,Wunderground v.1.15,2013-03-27 21:55:00,
2013-03-27 17:06:00,41.5,19.5,30.23,NW,322,0.0,0.0,41,0.00,,,0.00,Wunderground v.1.15,2013-03-27 22:06:00,
2013-03-27 17:15:00,41.5,18.9,30.23,SE,129,0.0,0.0,40,0.00,,,0.00,Wunderground v.1.15,2013-03-27 22:15:00,
2013-03-27 17:20:00,41.2,19.8,30.23,NW,307,0.0,0.0,42,0.00,,,0.00,Wunderground v.1.15,2013-03-27 22:20:00,
2013-03-27 17:25:00,41.2,19.8,30.23,NW,318,0.0,0.0,42,0.00,,,0.00,Wunderground v.1.15,2013-03-27 22:25:00,
2013-03-27 17:30:00,41.2,19.8,30.24,NW,318,0.0,0.0,42,0.00,,,0.00,Wunderground v.1.15,2013-03-27 22:30:00,
2013-03-27 17:35:00,41.2,19.2,30.24,NNW,333,0.0,0.0,41,0.00,,,0.00,Wunderground v.1.15,2013-03-27 22:35:00,
2013-03-27 17:40:00,41.2,19.2,30.24,NNW,346,0.0,0.0,41,0.00,,,0.00,Wunderground v.1.15,2013-03-27 22:40:00,
2013-03-27 17:50:00,40.9,19.5,30.23,NNW,346,0.0,0.0,42,0.00,,,0.00,Wunderground v.1.15,2013-03-27 22:50:00,
2013-03-27 18:00:00,40.9,19.5,30.23,NNW,347,0.0,0.0,42,0.00,,,0.00,Wunderground v.1.15,2013-03-27 23:00:00,
2013-03-27 18:06:00,40.9,19.5,30.23,NNW,347,0.0,0.0,42,0.00,,,0.00,Wunderground v.1.15,2013-03-27 23:06:00,
2013-03-27 18:15:00,40.6,19.3,30.23,NNW,347,0.0,0.0,42,0.00,,,0.00,Wunderground v.1.15,2013-03-27 23:15:00,
2013-03-27 18:20:00,40.5,19.2,30.23,NNW,347,0.0,0.0,42,0.00,,,0.00,Wunderground v.1.15,2013-03-27 23:20:00,
2013-03-27 18:25:00,40.2,19.5,30.23,NNW,347,0.0,0.0,43,0.00,,,0.00,Wunderground v.1.15,2013-03-27 23:25:00,
2013-03-27 18:35:00,39.9,19.2,30.24,NNW,347,0.0,0.0,43,0.00,,,0.00,Wunderground v.1.15,2013-03-27 23:35:00,
2013-03-27 18:40:00,39.6,19.5,30.24,NNW,347,0.0,0.0,44,0.00,,,0.00,Wunderground v.1.15,2013-03-27 23:40:00,
2013-03-27 18:45:00,39.3,19.2,30.24,NNW,347,0.0,0.0,44,0.00,,,0.00,Wunderground v.1.15,2013-03-27 23:45:00,
2013-03-27 18:50:00,39.2,19.1,30.24,NNW,347,0.0,0.0,44,0.00,,,0.00,Wunderground v.1.15,2013-03-27 23:50:00,
2013-03-27 18:55:00,39.1,19.0,30.24,NNW,347,0.0,0.0,44,0.00,,,0.00,Wunderground v.1.15,2013-03-27 23:55:00,
2013-03-27 19:06:00,38.5,19.5,30.24,NNW,347,0.0,0.0,46,0.00,,,0.00,Wunderground v.1.15,2013-03-28 00:06:00,
2013-03-27 19:15:00,38.0,20.0,30.24,NNW,347,0.0,0.0,48,0.00,,,0.00,Wunderground v.1.15,2013-03-28 00:15:00,
2013-03-27 19:25:00,37.5,19.6,30.24,NNW,347,0.0,0.0,48,0.00,,,0.00,Wunderground v.1.15,2013-03-28 00:25:00,
2013-03-27 19:30:00,37.2,19.3,30.25,NNW,347,0.0,0.0,48,0.00,,,0.00,Wunderground v.1.15,2013-03-28 00:30:00,
2013-03-27 19:35:00,36.9,19.5,30.25,NNW,347,0.0,0.0,49,0.00,,,0.00,Wunderground v.1.15,2013-03-28 00:35:00,
2013-03-27 19:40:00,36.8,19.4,30.25,NNW,347,0.0,0.0,49,0.00,,,0.00,Wunderground v.1.15,2013-03-28 00:40:00,
2013-03-27 19:50:00,36.2,19.3,30.25,NNW,347,0.0,0.0,50,0.00,,,0.00,Wunderground v.1.15,2013-03-28 00:50:00,
2013-03-27 19:55:00,35.9,19.5,30.25,NNW,347,0.0,0.0,51,0.00,,,0.00,Wunderground v.1.15,2013-03-28 00:55:00,
2013-03-27 20:00:00,35.8,19.4,30.25,NNW,347,0.0,0.0,51,0.00,,,0.00,Wunderground v.1.15,2013-03-28 01:00:00,
2013-03-27 20:06:00,35.5,19.1,30.25,NNW,347,0.0,0.0,51,0.00,,,0.00,Wunderground v.1.15,2013-03-28 01:06:00,
2013-03-27 20:15:00,35.0,19.1,30.26,NNW,347,0.0,0.0,52,0.00,,,0.00,Wunderground v.1.15,2013-03-28 01:15:00,
2013-03-27 20:20:00,34.9,19.0,30.26,NNW,347,0.0,0.0,52,0.00,,,0.00,Wunderground v.1.15,2013-03-28 01:20:00,
2013-03-27 20:30:00,34.1,19.2,30.25,NNW,347,0.0,0.0,54,0.00,,,0.00,Wunderground v.1.15,2013-03-28 01:30:00,
2013-03-27 20:35:00,33.7,19.2,30.25,NNW,347,0.0,0.0,55,0.00,,,0.00,Wunderground v.1.15,2013-03-28 01:35:00,
2013-03-27 20:40:00,33.2,19.2,30.25,NNW,347,0.0,0.0,56,0.00,,,0.00,Wunderground v.1.15,2013-03-28 01:40:00,
2013-03-27 20:45:00,32.9,18.9,30.25,NNW,347,0.0,0.0,56,0.00,,,0.00,Wunderground v.1.15,2013-03-28 01:45:00,
2013-03-27 20:50:00,32.8,20.0,30.25,NNW,347,0.0,0.0,59,0.00,,,0.00,Wunderground v.1.15,2013-03-28 01:50:00,
2013-03-27 21:00:00,32.5,20.5,30.26,NNW,347,0.0,0.0,61,0.00,,,0.00,Wunderground v.1.15,2013-03-28 02:00:00,
2013-03-27 21:06:00,32.1,20.2,30.26,NNW,347,0.0,0.0,61,0.00,,,0.00,Wunderground v.1.15,2013-03-28 02:06:00,
2013-03-27 21:15:00,31.6,19.7,30.26,NNW,347,0.0,0.0,61,0.00,,,0.00,Wunderground v.1.15,2013-03-28 02:15:00,
2013-03-27 21:20:00,31.6,19.7,30.26,NNW,347,0.0,0.0,61,0.00,,,0.00,Wunderground v.1.15,2013-03-28 02:20:00,
2013-03-27 21:30:00,31.8,20.3,30.26,NNW,347,0.0,0.0,62,0.00,,,0.00,Wunderground v.1.15,2013-03-28 02:30:00,
2013-03-27 21:35:00,31.6,20.1,30.26,NNW,347,0.0,0.0,62,0.00,,,0.00,Wunderground v.1.15,2013-03-28 02:35:00,
2013-03-27 21:40:00,31.3,19.8,30.26,NNW,347,0.0,0.0,62,0.00,,,0.00,Wunderground v.1.15,2013-03-28 02:40:00,
2013-03-27 21:45:00,31.2,20.1,30.26,NNW,347,0.0,0.0,63,0.00,,,0.00,Wunderground v.1.15,2013-03-28 02:45:00,
2013-03-27 21:50:00,30.9,19.8,30.26,NNW,347,0.0,0.0,63,0.00,,,0.00,Wunderground v.1.15,2013-03-28 02:50:00,
2013-03-27 22:00:00,30.7,19.6,30.26,NNW,347,0.0,0.0,63,0.00,,,0.00,Wunderground v.1.15,2013-03-28 03:00:00,
2013-03-27 22:06:00,30.7,19.6,30.26,NNW,347,0.0,0.0,63,0.00,,,0.00,Wunderground v.1.15,2013-03-28 03:06:00,
2013-03-27 22:15:00,30.6,19.9,30.27,NNW,347,0.0,0.0,64,0.00,,,0.00,Wunderground v.1.15,2013-03-28 03:15:00,
2013-03-27 22:20:00,30.4,20.0,30.27,NNW,347,0.0,0.0,65,0.00,,,0.00,Wunderground v.1.15,2013-03-28 03:20:00,
2013-03-27 22:25:00,30.1,20.1,30.27,NNW,347,0.0,0.0,66,0.00,,,0.00,Wunderground v.1.15,2013-03-28 03:25:00,
2013-03-27 22:30:00,29.7,19.7,30.27,NNW,347,0.0,0.0,66,0.00,,,0.00,Wunderground v.1.15,2013-03-28 03:30:00,
2013-03-27 22:40:00,29.4,19.8,30.27,NNW,347,0.0,0.0,67,0.00,,,0.00,Wunderground v.1.15,2013-03-28 03:40:00,
2013-03-27 22:45:00,29.3,19.7,30.27,NNW,347,0.0,0.0,67,0.00,,,0.00,Wunderground v.1.15,2013-03-28 03:45:00,
2013-03-27 22:55:00,29.0,19.8,30.27,NNW,347,0.0,0.0,68,0.00,,,0.00,Wunderground v.1.15,2013-03-28 03:55:00,
2013-03-27 23:00:00,28.8,19.9,30.27,NNW,347,0.0,0.0,69,0.00,,,0.00,Wunderground v.1.15,2013-03-28 04:00:00,
2013-03-27 23:06:00,28.7,19.8,30.27,NNW,347,0.0,0.0,69,0.00,,,0.00,Wunderground v.1.15,2013-03-28 04:06:00,
2013-03-27 23:10:00,28.5,19.6,30.27,NNW,347,0.0,0.0,69,0.00,,,0.00,Wunderground v.1.15,2013-03-28 04:10:00,
2013-03-27 23:15:00,28.4,19.2,30.28,NNW,347,0.0,0.0,68,0.00,,,0.00,Wunderground v.1.15,2013-03-28 04:15:00,
2013-03-27 23:20:00,28.1,18.9,30.28,NNW,347,0.0,0.0,68,0.00,,,0.00,Wunderground v.1.15,2013-03-28 04:20:00,
2013-03-27 23:25:00,27.9,18.7,30.28,NNW,347,0.0,0.0,68,0.00,,,0.00,Wunderground v.1.15,2013-03-28 04:25:00,
2013-03-27 23:30:00,27.8,18.9,30.27,NNW,347,0.0,0.0,69,0.00,,,0.00,Wunderground v.1.15,2013-03-28 04:30:00,
2013-03-27 23:40:00,27.6,19.1,30.27,NNW,347,0.0,0.0,70,0.00,,,0.00,Wunderground v.1.15,2013-03-28 04:40:00,
2013-03-27 23:45:00,27.6,19.4,30.27,NNW,347,0.0,0.0,71,0.00,,,0.00,Wunderground v.1.15,2013-03-28 04:45:00,
2013-03-27 23:50:00,27.6,19.4,30.27,NNW,347,0.0,0.0,71,0.00,,,0.00,Wunderground v.1.15,2013-03-28 04:50:00,
2013-03-27 23:55:00,27.3,19.5,30.27,NNW,347,0.0,0.0,72,0.00,,,0.00,Wunderground v.1.15,2013-03-28 04:55:00,